Puerto Cabezas, Nicaragua

6:49 AM CST on June 27, 2017 (GMT -0600)
Loma Verde | | Change Station

Elev 31 ft 14.03 °N, 83.40 °W | Updated 58 seconds ago

Scattered Clouds
Scattered Clouds
76.9 °F
Feels Like 77 °F
N
0.0
Wind Variable Wind from NNW

Today
High -- | Low -- °F
--% Chance of Precip.
Yesterday
High -- | Low -- °F
Precip. -- in
Pressure 29.86 in
Visibility 4.3 miles
Clouds Scattered Clouds 1600 ft
Scattered Clouds 10000 ft
Heat Index 77 °F
Dew Point 76 °F
Humidity 98%
Rainfall 0.00 in
Snow Depth Not available.
5:08 AM 6:05 PM
Waxing Crescent, 16% visible
METAR MNPC 271200Z 00000KT 7000 SCT016 SCT100 24/24 Q1011 HZ
Pressure 29.86 in
Visibility 4.3 miles
Clouds Scattered Clouds 1600 ft
Scattered Clouds 10000 ft
Heat Index 77 °F
Dew Point 76 °F
Humidity 98%
Rainfall 0.00 in
Snow Depth Not available.
5:08 AM 6:05 PM
Waxing Crescent, 16% visible
METAR MNPC 271200Z 00000KT 7000 SCT016 SCT100 24/24 Q1011 HZ

Get Severe Weather Alerts

Thanks for signing up!

Be on the lookout for a verification email in your inbox.

You'll start receiving the daily forecast at 6 AM.

×

10-Day Weather Forecast

No radar image for this location.
×

Almanac

Astronomy

Jun. 27, 2017 Rise Set
Actual Time
Civil Twilight
Nautical Twilight
Astronomical Twilight
Moon
Length of Visible Light
Length of Day
Tomorrow will be .
, % of the Moon is Illuminated

Today's Extremes

Country Highs Country Lows

Community

WunderPhotos

Category 6

Welcome to Category 6. This is the collective home for Weather Underground's featured writeups by Dr. Jeff Masters (right), Bob Henson (left), Chris Burt, and other regular contributors.

Nearby

Air Quality

  Air Quality AQ Index Pollutant
Not available.

Snow Depth

Station Depth Elevation

Earthquake Activity

City Distance Mag. Time & Date
Minimum magnitude displayed is 2.5.

Coastal Water Temperatures

Place Temperature

Stations

Nearby Weather Stations

Station Location Temp. Windchill Dew Point Humidity Wind Precip. Elev Updated Type